Atkinson, Maine
Current Conditions -  °F | °C
As of 10:08 PM on Tuesday 21 Oct 2014 (Local Time) from KBGR Reporting Station
Overcast Overcast  
Wind Chill:   Ceiling: 700
Heat Index:   Visibility: 8mi
Dew Point:   Wind: 15mph
Humidity: 93%   Direction: 30°NNE
Pressure: 30.16"   Gusts: NA
Location:  45.2129°N, 69.1615°W
Report Text: KBGR 220208Z 03013KT 8SM BKN007 OVC012 08/07 A3016 RMK AO2 RAE04 P0000 T00780067
Loading
Personal Weather Stations






























Interactive Weather Map New forecast layout! Learn more

10-Day Weather Forecast

Advertisements
Track Severe Weather on mobile